sensor_id;sensor_type;location;lat;lon;timestamp;P1;durP1;ratioP1;P2;durP2;ratioP2
49460;SDS011;35355;49.198;-0.368;2022-07-24T00:01:38;8.05;;;4.95;;
49460;SDS011;35355;49.198;-0.368;2022-07-24T00:04:04;9.98;;;5.25;;
49460;SDS011;35355;49.198;-0.368;2022-07-24T00:06:30;9.40;;;5.10;;
49460;SDS011;35355;49.198;-0.368;2022-07-24T00:08:56;10.32;;;5.07;;
49460;SDS011;35355;49.198;-0.368;2022-07-24T00:11:21;10.68;;;5.18;;
49460;SDS011;35355;49.198;-0.368;2022-07-24T00:13:47;10.27;;;7.18;;
49460;SDS011;35355;49.198;-0.368;2022-07-24T00:16:12;11.90;;;6.25;;
49460;SDS011;35355;49.198;-0.368;2022-07-24T00:18:38;14.80;;;5.57;;
49460;SDS011;35355;49.198;-0.368;2022-07-24T00:21:04;7.47;;;5.38;;
49460;SDS011;35355;49.198;-0.368;2022-07-24T00:23:29;9.88;;;5.63;;
49460;SDS011;35355;49.198;-0.368;2022-07-24T00:25:55;11.00;;;5.75;;
49460;SDS011;35355;49.198;-0.368;2022-07-24T00:28:21;8.00;;;5.22;;
49460;SDS011;35355;49.198;-0.368;2022-07-24T00:30:46;14.55;;;6.32;;
49460;SDS011;35355;49.198;-0.368;2022-07-24T00:33:13;11.55;;;6.35;;
49460;SDS011;35355;49.198;-0.368;2022-07-24T00:35:39;11.00;;;6.80;;
49460;SDS011;35355;49.198;-0.368;2022-07-24T00:38:04;12.75;;;5.72;;
49460;SDS011;35355;49.198;-0.368;2022-07-24T00:40:30;13.35;;;6.22;;
49460;SDS011;35355;49.198;-0.368;2022-07-24T00:42:56;12.05;;;5.57;;
49460;SDS011;35355;49.198;-0.368;2022-07-24T00:45:23;13.02;;;6.13;;
49460;SDS011;35355;49.198;-0.368;2022-07-24T00:47:49;14.25;;;6.47;;
49460;SDS011;35355;49.198;-0.368;2022-07-24T00:50:16;14.73;;;6.65;;
49460;SDS011;35355;49.198;-0.368;2022-07-24T00:52:42;11.52;;;6.18;;
49460;SDS011;35355;49.198;-0.368;2022-07-24T00:55:09;10.43;;;6.57;;
49460;SDS011;35355;49.198;-0.368;2022-07-24T00:57:35;12.60;;;6.75;;
49460;SDS011;35355;49.198;-0.368;2022-07-24T01:00:01;13.40;;;6.30;;
49460;SDS011;35355;49.198;-0.368;2022-07-24T01:02:26;12.07;;;6.13;;
49460;SDS011;35355;49.198;-0.368;2022-07-24T01:04:52;14.10;;;6.75;;
49460;SDS011;35355;49.198;-0.368;2022-07-24T01:07:19;13.07;;;6.72;;
49460;SDS011;35355;49.198;-0.368;2022-07-24T01:09:44;11.98;;;6.22;;
49460;SDS011;35355;49.198;-0.368;2022-07-24T01:12:10;14.85;;;6.25;;
49460;SDS011;35355;49.198;-0.368;2022-07-24T01:14:37;11.02;;;6.80;;
49460;SDS011;35355;49.198;-0.368;2022-07-24T01:17:04;14.20;;;6.25;;
49460;SDS011;35355;49.198;-0.368;2022-07-24T01:19:29;15.07;;;6.05;;
49460;SDS011;35355;49.198;-0.368;2022-07-24T01:21:55;9.55;;;5.43;;
49460;SDS011;35355;49.198;-0.368;2022-07-24T01:24:21;11.43;;;6.22;;
49460;SDS011;35355;49.198;-0.368;2022-07-24T01:26:47;8.65;;;5.03;;
49460;SDS011;35355;49.198;-0.368;2022-07-24T01:29:13;9.48;;;5.18;;
49460;SDS011;35355;49.198;-0.368;2022-07-24T01:31:39;11.70;;;6.35;;
49460;SDS011;35355;49.198;-0.368;2022-07-24T01:34:05;18.48;;;6.38;;
49460;SDS011;35355;49.198;-0.368;2022-07-24T01:36:31;12.40;;;6.00;;
49460;SDS011;35355;49.198;-0.368;2022-07-24T01:38:57;12.00;;;5.78;;
49460;SDS011;35355;49.198;-0.368;2022-07-24T01:41:23;8.68;;;5.57;;
49460;SDS011;35355;49.198;-0.368;2022-07-24T01:43:49;11.13;;;5.50;;
49460;SDS011;35355;49.198;-0.368;2022-07-24T01:46:15;14.68;;;5.65;;
49460;SDS011;35355;49.198;-0.368;2022-07-24T01:48:41;10.93;;;5.40;;
49460;SDS011;35355;49.198;-0.368;2022-07-24T01:51:08;10.35;;;5.43;;
49460;SDS011;35355;49.198;-0.368;2022-07-24T01:53:33;10.98;;;5.88;;
49460;SDS011;35355;49.198;-0.368;2022-07-24T01:55:59;12.50;;;5.28;;
49460;SDS011;35355;49.198;-0.368;2022-07-24T01:58:25;15.68;;;5.38;;
49460;SDS011;35355;49.198;-0.368;2022-07-24T02:00:50;11.32;;;5.43;;
49460;SDS011;35355;49.198;-0.368;2022-07-24T02:03:17;11.60;;;5.88;;
49460;SDS011;35355;49.198;-0.368;2022-07-24T02:05:43;10.02;;;6.10;;
49460;SDS011;35355;49.198;-0.368;2022-07-24T02:08:08;12.45;;;6.70;;
49460;SDS011;35355;49.198;-0.368;2022-07-24T02:10:34;10.50;;;6.53;;
49460;SDS011;35355;49.198;-0.368;2022-07-24T02:13:00;13.98;;;7.68;;
49460;SDS011;35355;49.198;-0.368;2022-07-24T02:15:25;13.48;;;6.28;;
49460;SDS011;35355;49.198;-0.368;2022-07-24T02:17:54;9.60;;;6.10;;
49460;SDS011;35355;49.198;-0.368;2022-07-24T02:20:21;12.13;;;6.30;;
49460;SDS011;35355;49.198;-0.368;2022-07-24T02:22:47;10.85;;;6.07;;
49460;SDS011;35355;49.198;-0.368;2022-07-24T02:25:12;8.38;;;5.80;;
49460;SDS011;35355;49.198;-0.368;2022-07-24T02:27:40;15.32;;;6.60;;
49460;SDS011;35355;49.198;-0.368;2022-07-24T02:30:07;12.20;;;6.55;;
49460;SDS011;35355;49.198;-0.368;2022-07-24T02:32:35;12.45;;;6.65;;
49460;SDS011;35355;49.198;-0.368;2022-07-24T02:35:01;15.68;;;8.38;;
49460;SDS011;35355;49.198;-0.368;2022-07-24T02:37:26;19.80;;;9.05;;
49460;SDS011;35355;49.198;-0.368;2022-07-24T02:39:52;13.90;;;8.82;;
49460;SDS011;35355;49.198;-0.368;2022-07-24T02:42:17;15.27;;;8.40;;
49460;SDS011;35355;49.198;-0.368;2022-07-24T02:44:43;12.82;;;7.90;;
49460;SDS011;35355;49.198;-0.368;2022-07-24T02:47:08;16.10;;;8.93;;
49460;SDS011;35355;49.198;-0.368;2022-07-24T02:49:34;17.60;;;7.45;;
49460;SDS011;35355;49.198;-0.368;2022-07-24T02:52:01;14.18;;;7.75;;
49460;SDS011;35355;49.198;-0.368;2022-07-24T02:54:28;11.88;;;7.72;;
49460;SDS011;35355;49.198;-0.368;2022-07-24T02:56:53;15.48;;;8.75;;
49460;SDS011;35355;49.198;-0.368;2022-07-24T02:59:19;17.83;;;7.70;;
49460;SDS011;35355;49.198;-0.368;2022-07-24T03:01:44;13.77;;;7.47;;
49460;SDS011;35355;49.198;-0.368;2022-07-24T03:04:10;15.57;;;6.97;;
49460;SDS011;35355;49.198;-0.368;2022-07-24T03:06:35;16.75;;;7.63;;
49460;SDS011;35355;49.198;-0.368;2022-07-24T03:09:03;11.57;;;6.78;;
49460;SDS011;35355;49.198;-0.368;2022-07-24T03:11:30;11.43;;;6.70;;
49460;SDS011;35355;49.198;-0.368;2022-07-24T03:13:55;12.40;;;7.00;;
49460;SDS011;35355;49.198;-0.368;2022-07-24T03:16:21;12.05;;;6.88;;
49460;SDS011;35355;49.198;-0.368;2022-07-24T03:18:48;15.23;;;7.35;;
49460;SDS011;35355;49.198;-0.368;2022-07-24T03:21:16;12.95;;;6.65;;
49460;SDS011;35355;49.198;-0.368;2022-07-24T03:23:43;11.30;;;6.50;;
49460;SDS011;35355;49.198;-0.368;2022-07-24T03:26:09;9.73;;;6.60;;
49460;SDS011;35355;49.198;-0.368;2022-07-24T03:28:34;10.40;;;6.80;;
49460;SDS011;35355;49.198;-0.368;2022-07-24T03:31:02;12.35;;;6.45;;
49460;SDS011;35355;49.198;-0.368;2022-07-24T03:33:28;15.20;;;7.10;;
49460;SDS011;35355;49.198;-0.368;2022-07-24T03:35:54;12.95;;;7.60;;
49460;SDS011;35355;49.198;-0.368;2022-07-24T03:38:20;14.98;;;6.78;;
49460;SDS011;35355;49.198;-0.368;2022-07-24T03:40:46;12.52;;;7.53;;
49460;SDS011;35355;49.198;-0.368;2022-07-24T03:43:13;12.00;;;6.50;;
49460;SDS011;35355;49.198;-0.368;2022-07-24T03:45:40;12.15;;;6.88;;
49460;SDS011;35355;49.198;-0.368;2022-07-24T03:48:06;10.85;;;7.35;;
49460;SDS011;35355;49.198;-0.368;2022-07-24T03:50:32;17.05;;;6.47;;
49460;SDS011;35355;49.198;-0.368;2022-07-24T03:52:58;18.00;;;6.63;;
49460;SDS011;35355;49.198;-0.368;2022-07-24T03:55:23;13.98;;;7.22;;
49460;SDS011;35355;49.198;-0.368;2022-07-24T03:57:49;10.80;;;6.53;;
49460;SDS011;35355;49.198;-0.368;2022-07-24T04:00:15;11.82;;;6.78;;
49460;SDS011;35355;49.198;-0.368;2022-07-24T04:02:41;13.18;;;6.68;;
49460;SDS011;35355;49.198;-0.368;2022-07-24T04:05:07;15.70;;;7.05;;
49460;SDS011;35355;49.198;-0.368;2022-07-24T04:07:37;15.23;;;7.35;;
49460;SDS011;35355;49.198;-0.368;2022-07-24T04:10:03;10.77;;;7.18;;
49460;SDS011;35355;49.198;-0.368;2022-07-24T04:12:30;13.52;;;6.72;;
49460;SDS011;35355;49.198;-0.368;2022-07-24T04:14:56;12.55;;;7.15;;
49460;SDS011;35355;49.198;-0.368;2022-07-24T04:17:22;10.38;;;6.05;;
49460;SDS011;35355;49.198;-0.368;2022-07-24T04:19:48;11.50;;;7.13;;
49460;SDS011;35355;49.198;-0.368;2022-07-24T04:22:14;12.73;;;7.45;;
49460;SDS011;35355;49.198;-0.368;2022-07-24T04:24:39;10.90;;;6.45;;
49460;SDS011;35355;49.198;-0.368;2022-07-24T04:27:05;14.32;;;7.13;;
49460;SDS011;35355;49.198;-0.368;2022-07-24T04:29:31;9.32;;;6.35;;
49460;SDS011;35355;49.198;-0.368;2022-07-24T04:31:57;13.00;;;6.47;;
49460;SDS011;35355;49.198;-0.368;2022-07-24T04:34:25;11.48;;;7.00;;
49460;SDS011;35355;49.198;-0.368;2022-07-24T04:36:50;17.73;;;8.30;;
49460;SDS011;35355;49.198;-0.368;2022-07-24T04:39:16;10.15;;;7.07;;
49460;SDS011;35355;49.198;-0.368;2022-07-24T04:41:42;12.73;;;6.88;;
49460;SDS011;35355;49.198;-0.368;2022-07-24T04:44:08;12.50;;;7.07;;
49460;SDS011;35355;49.198;-0.368;2022-07-24T04:46:33;13.95;;;6.65;;
49460;SDS011;35355;49.198;-0.368;2022-07-24T04:48:59;11.05;;;6.75;;
49460;SDS011;35355;49.198;-0.368;2022-07-24T04:51:25;11.88;;;6.80;;
49460;SDS011;35355;49.198;-0.368;2022-07-24T04:53:51;10.45;;;7.00;;
49460;SDS011;35355;49.198;-0.368;2022-07-24T04:56:20;12.85;;;6.07;;
49460;SDS011;35355;49.198;-0.368;2022-07-24T04:58:46;11.95;;;6.63;;
49460;SDS011;35355;49.198;-0.368;2022-07-24T05:01:12;9.77;;;6.03;;
49460;SDS011;35355;49.198;-0.368;2022-07-24T05:03:39;11.95;;;5.25;;
49460;SDS011;35355;49.198;-0.368;2022-07-24T05:06:05;8.45;;;5.53;;
49460;SDS011;35355;49.198;-0.368;2022-07-24T05:08:31;12.32;;;5.65;;
49460;SDS011;35355;49.198;-0.368;2022-07-24T05:10:57;8.60;;;5.22;;
49460;SDS011;35355;49.198;-0.368;2022-07-24T05:13:22;6.65;;;5.53;;
49460;SDS011;35355;49.198;-0.368;2022-07-24T05:15:48;10.32;;;5.20;;
49460;SDS011;35355;49.198;-0.368;2022-07-24T05:18:13;9.43;;;4.55;;
49460;SDS011;35355;49.198;-0.368;2022-07-24T05:41:50;8.30;;;4.32;;
49460;SDS011;35355;49.198;-0.368;2022-07-24T05:44:17;10.05;;;4.60;;
49460;SDS011;35355;49.198;-0.368;2022-07-24T05:46:43;7.85;;;4.78;;
49460;SDS011;35355;49.198;-0.368;2022-07-24T05:49:09;10.55;;;4.75;;
49460;SDS011;35355;49.198;-0.368;2022-07-24T05:51:34;9.38;;;4.25;;
49460;SDS011;35355;49.198;-0.368;2022-07-24T05:54:00;8.10;;;4.10;;
49460;SDS011;35355;49.198;-0.368;2022-07-24T05:56:26;10.43;;;4.22;;
49460;SDS011;35355;49.198;-0.368;2022-07-24T05:58:51;7.93;;;4.03;;
49460;SDS011;35355;49.198;-0.368;2022-07-24T06:01:17;8.23;;;4.30;;
49460;SDS011;35355;49.198;-0.368;2022-07-24T06:03:43;10.27;;;4.05;;
49460;SDS011;35355;49.198;-0.368;2022-07-24T06:06:08;8.32;;;5.32;;
49460;SDS011;35355;49.198;-0.368;2022-07-24T06:08:34;6.13;;;3.63;;
49460;SDS011;35355;49.198;-0.368;2022-07-24T06:11:00;9.98;;;3.80;;
49460;SDS011;35355;49.198;-0.368;2022-07-24T06:13:25;9.65;;;3.38;;
49460;SDS011;35355;49.198;-0.368;2022-07-24T06:15:51;7.82;;;3.75;;
49460;SDS011;35355;49.198;-0.368;2022-07-24T06:18:17;6.28;;;3.20;;
49460;SDS011;35355;49.198;-0.368;2022-07-24T06:20:43;5.90;;;3.72;;
49460;SDS011;35355;49.198;-0.368;2022-07-24T06:23:09;7.13;;;3.20;;
49460;SDS011;35355;49.198;-0.368;2022-07-24T06:25:34;8.25;;;3.85;;
49460;SDS011;35355;49.198;-0.368;2022-07-24T06:28:00;7.05;;;3.35;;
49460;SDS011;35355;49.198;-0.368;2022-07-24T06:30:26;6.55;;;3.33;;
49460;SDS011;35355;49.198;-0.368;2022-07-24T06:32:54;8.93;;;3.95;;
49460;SDS011;35355;49.198;-0.368;2022-07-24T06:35:22;7.13;;;3.75;;
49460;SDS011;35355;49.198;-0.368;2022-07-24T06:37:48;4.55;;;2.92;;
49460;SDS011;35355;49.198;-0.368;2022-07-24T06:40:15;6.30;;;3.30;;
49460;SDS011;35355;49.198;-0.368;2022-07-24T06:42:41;4.63;;;2.60;;
49460;SDS011;35355;49.198;-0.368;2022-07-24T06:45:07;5.13;;;2.92;;
49460;SDS011;35355;49.198;-0.368;2022-07-24T06:47:33;5.45;;;3.10;;
49460;SDS011;35355;49.198;-0.368;2022-07-24T06:49:59;3.58;;;2.65;;
49460;SDS011;35355;49.198;-0.368;2022-07-24T06:52:25;4.18;;;2.72;;
49460;SDS011;35355;49.198;-0.368;2022-07-24T06:54:50;3.80;;;2.53;;
49460;SDS011;35355;49.198;-0.368;2022-07-24T06:57:16;6.78;;;2.13;;
49460;SDS011;35355;49.198;-0.368;2022-07-24T06:59:43;4.88;;;2.67;;
49460;SDS011;35355;49.198;-0.368;2022-07-24T07:02:09;9.80;;;4.15;;
49460;SDS011;35355;49.198;-0.368;2022-07-24T07:04:35;3.25;;;2.33;;
49460;SDS011;35355;49.198;-0.368;2022-07-24T07:07:01;3.80;;;2.03;;
49460;SDS011;35355;49.198;-0.368;2022-07-24T07:09:28;6.18;;;2.25;;
49460;SDS011;35355;49.198;-0.368;2022-07-24T07:11:56;5.35;;;1.98;;
49460;SDS011;35355;49.198;-0.368;2022-07-24T07:14:22;9.18;;;2.97;;
49460;SDS011;35355;49.198;-0.368;2022-07-24T07:16:48;4.68;;;1.70;;
49460;SDS011;35355;49.198;-0.368;2022-07-24T07:19:14;9.23;;;2.20;;
49460;SDS011;35355;49.198;-0.368;2022-07-24T07:21:40;5.38;;;2.15;;
49460;SDS011;35355;49.198;-0.368;2022-07-24T07:24:05;4.35;;;1.67;;
49460;SDS011;35355;49.198;-0.368;2022-07-24T07:26:31;2.05;;;1.45;;
49460;SDS011;35355;49.198;-0.368;2022-07-24T07:28:57;2.70;;;1.23;;
49460;SDS011;35355;49.198;-0.368;2022-07-24T07:31:23;7.85;;;1.88;;
49460;SDS011;35355;49.198;-0.368;2022-07-24T07:33:49;4.40;;;2.33;;
49460;SDS011;35355;49.198;-0.368;2022-07-24T07:36:15;7.45;;;1.90;;
49460;SDS011;35355;49.198;-0.368;2022-07-24T07:38:41;4.40;;;1.70;;
49460;SDS011;35355;49.198;-0.368;2022-07-24T07:41:06;3.08;;;1.48;;
49460;SDS011;35355;49.198;-0.368;2022-07-24T07:43:32;3.60;;;1.40;;
49460;SDS011;35355;49.198;-0.368;2022-07-24T07:45:58;3.28;;;1.58;;
49460;SDS011;35355;49.198;-0.368;2022-07-24T07:48:23;4.45;;;1.58;;
49460;SDS011;35355;49.198;-0.368;2022-07-24T07:50:49;3.90;;;1.40;;
49460;SDS011;35355;49.198;-0.368;2022-07-24T07:53:15;4.82;;;1.40;;
49460;SDS011;35355;49.198;-0.368;2022-07-24T07:55:41;9.00;;;2.42;;
49460;SDS011;35355;49.198;-0.368;2022-07-24T07:58:09;4.15;;;1.35;;
49460;SDS011;35355;49.198;-0.368;2022-07-24T08:00:38;4.55;;;2.10;;
49460;SDS011;35355;49.198;-0.368;2022-07-24T08:03:04;3.20;;;1.10;;
49460;SDS011;35355;49.198;-0.368;2022-07-24T08:05:29;2.63;;;1.48;;
49460;SDS011;35355;49.198;-0.368;2022-07-24T08:07:55;6.43;;;1.42;;
49460;SDS011;35355;49.198;-0.368;2022-07-24T08:10:21;6.93;;;1.60;;
49460;SDS011;35355;49.198;-0.368;2022-07-24T08:12:47;11.02;;;2.78;;
49460;SDS011;35355;49.198;-0.368;2022-07-24T08:15:13;5.93;;;1.70;;
49460;SDS011;35355;49.198;-0.368;2022-07-24T08:17:39;3.42;;;1.30;;
49460;SDS011;35355;49.198;-0.368;2022-07-24T08:20:04;6.22;;;2.28;;
49460;SDS011;35355;49.198;-0.368;2022-07-24T08:22:30;5.68;;;2.03;;
49460;SDS011;35355;49.198;-0.368;2022-07-24T08:24:57;13.27;;;3.45;;
49460;SDS011;35355;49.198;-0.368;2022-07-24T08:27:23;15.93;;;4.40;;
49460;SDS011;35355;49.198;-0.368;2022-07-24T08:29:48;17.33;;;4.70;;
49460;SDS011;35355;49.198;-0.368;2022-07-24T08:32:14;9.98;;;2.97;;
49460;SDS011;35355;49.198;-0.368;2022-07-24T08:34:40;8.68;;;2.28;;
49460;SDS011;35355;49.198;-0.368;2022-07-24T08:37:07;6.60;;;1.65;;
49460;SDS011;35355;49.198;-0.368;2022-07-24T08:39:32;4.72;;;0.98;;
49460;SDS011;35355;49.198;-0.368;2022-07-24T08:41:58;2.45;;;0.98;;
49460;SDS011;35355;49.198;-0.368;2022-07-24T08:44:24;1.83;;;0.77;;
49460;SDS011;35355;49.198;-0.368;2022-07-24T08:46:50;5.20;;;0.93;;
49460;SDS011;35355;49.198;-0.368;2022-07-24T08:49:19;4.55;;;0.93;;
49460;SDS011;35355;49.198;-0.368;2022-07-24T08:51:47;1.70;;;0.73;;
49460;SDS011;35355;49.198;-0.368;2022-07-24T08:54:14;3.97;;;0.90;;
49460;SDS011;35355;49.198;-0.368;2022-07-24T08:56:42;1.65;;;0.70;;
49460;SDS011;35355;49.198;-0.368;2022-07-24T08:59:15;2.63;;;0.90;;
49460;SDS011;35355;49.198;-0.368;2022-07-24T09:01:42;7.55;;;1.20;;
49460;SDS011;35355;49.198;-0.368;2022-07-24T09:04:30;2.00;;;0.75;;
49460;SDS011;35355;49.198;-0.368;2022-07-24T09:06:57;5.32;;;1.00;;
49460;SDS011;35355;49.198;-0.368;2022-07-24T09:09:24;5.10;;;0.93;;
49460;SDS011;35355;49.198;-0.368;2022-07-24T09:12:13;1.77;;;0.77;;
49460;SDS011;35355;49.198;-0.368;2022-07-24T09:14:39;1.67;;;0.60;;
49460;SDS011;35355;49.198;-0.368;2022-07-24T09:17:08;4.03;;;0.80;;
49460;SDS011;35355;49.198;-0.368;2022-07-24T09:19:49;0.90;;;0.57;;
49460;SDS011;35355;49.198;-0.368;2022-07-24T09:22:24;4.93;;;0.60;;
49460;SDS011;35355;49.198;-0.368;2022-07-24T09:25:20;2.25;;;0.90;;
49460;SDS011;35355;49.198;-0.368;2022-07-24T09:27:47;1.77;;;0.80;;
49460;SDS011;35355;49.198;-0.368;2022-07-24T09:32:59;2.40;;;0.70;;
49460;SDS011;35355;49.198;-0.368;2022-07-24T09:35:36;1.38;;;0.80;;
49460;SDS011;35355;49.198;-0.368;2022-07-24T09:40:45;1.33;;;0.57;;
49460;SDS011;35355;49.198;-0.368;2022-07-24T09:43:25;2.63;;;0.63;;
49460;SDS011;35355;49.198;-0.368;2022-07-24T09:48:22;2.90;;;1.00;;
49460;SDS011;35355;49.198;-0.368;2022-07-24T09:50:53;2.05;;;0.75;;
49460;SDS011;35355;49.198;-0.368;2022-07-24T09:53:22;3.15;;;0.82;;
49460;SDS011;35355;49.198;-0.368;2022-07-24T09:55:58;1.65;;;0.70;;
49460;SDS011;35355;49.198;-0.368;2022-07-24T09:58:25;3.90;;;0.65;;
49460;SDS011;35355;49.198;-0.368;2022-07-24T10:00:55;7.78;;;0.90;;
49460;SDS011;35355;49.198;-0.368;2022-07-24T10:03:26;3.28;;;0.63;;
49460;SDS011;35355;49.198;-0.368;2022-07-24T10:05:55;4.30;;;0.80;;
49460;SDS011;35355;49.198;-0.368;2022-07-24T10:08:23;2.60;;;1.02;;
49460;SDS011;35355;49.198;-0.368;2022-07-24T10:10:49;1.15;;;0.80;;
49460;SDS011;35355;49.198;-0.368;2022-07-24T10:13:16;4.10;;;0.90;;
49460;SDS011;35355;49.198;-0.368;2022-07-24T10:15:52;2.13;;;0.70;;
49460;SDS011;35355;49.198;-0.368;2022-07-24T10:18:24;1.80;;;0.77;;
49460;SDS011;35355;49.198;-0.368;2022-07-24T10:21:04;1.23;;;0.65;;
49460;SDS011;35355;49.198;-0.368;2022-07-24T10:23:35;2.35;;;0.40;;
49460;SDS011;35355;49.198;-0.368;2022-07-24T10:26:48;2.30;;;0.70;;
49460;SDS011;35355;49.198;-0.368;2022-07-24T10:29:15;3.30;;;0.70;;
49460;SDS011;35355;49.198;-0.368;2022-07-24T10:37:21;6.68;;;1.17;;
49460;SDS011;35355;49.198;-0.368;2022-07-24T10:43:08;3.45;;;0.80;;
49460;SDS011;35355;49.198;-0.368;2022-07-24T10:53:26;2.03;;;0.77;;
49460;SDS011;35355;49.198;-0.368;2022-07-24T10:56:15;1.88;;;1.13;;
49460;SDS011;35355;49.198;-0.368;2022-07-24T10:58:59;1.33;;;0.57;;
49460;SDS011;35355;49.198;-0.368;2022-07-24T11:01:29;1.48;;;0.52;;
49460;SDS011;35355;49.198;-0.368;2022-07-24T11:06:49;2.97;;;0.75;;
49460;SDS011;35355;49.198;-0.368;2022-07-24T11:09:17;3.72;;;0.70;;
49460;SDS011;35355;49.198;-0.368;2022-07-24T11:14:27;1.02;;;0.60;;
49460;SDS011;35355;49.198;-0.368;2022-07-24T11:20:15;1.15;;;0.60;;
49460;SDS011;35355;49.198;-0.368;2022-07-24T11:22:53;2.63;;;0.93;;
49460;SDS011;35355;49.198;-0.368;2022-07-24T11:25:21;2.15;;;0.90;;
49460;SDS011;35355;49.198;-0.368;2022-07-24T11:27:52;2.38;;;0.80;;
49460;SDS011;35355;49.198;-0.368;2022-07-24T11:30:24;1.63;;;0.70;;
49460;SDS011;35355;49.198;-0.368;2022-07-24T11:32:54;2.95;;;0.55;;
49460;SDS011;35355;49.198;-0.368;2022-07-24T11:35:53;3.08;;;0.73;;
49460;SDS011;35355;49.198;-0.368;2022-07-24T11:38:13;1.88;;;0.70;;
49460;SDS011;35355;49.198;-0.368;2022-07-24T11:40:40;4.05;;;0.80;;
49460;SDS011;35355;49.198;-0.368;2022-07-24T11:43:09;1.98;;;0.77;;
49460;SDS011;35355;49.198;-0.368;2022-07-24T11:45:35;1.90;;;0.80;;
49460;SDS011;35355;49.198;-0.368;2022-07-24T11:48:01;5.00;;;0.80;;
49460;SDS011;35355;49.198;-0.368;2022-07-24T11:50:29;2.63;;;1.00;;
49460;SDS011;35355;49.198;-0.368;2022-07-24T11:52:54;4.05;;;1.20;;
49460;SDS011;35355;49.198;-0.368;2022-07-24T11:55:23;3.90;;;1.15;;
49460;SDS011;35355;49.198;-0.368;2022-07-24T11:57:51;3.50;;;1.02;;
49460;SDS011;35355;49.198;-0.368;2022-07-24T12:00:19;2.45;;;1.23;;
49460;SDS011;35355;49.198;-0.368;2022-07-24T12:02:50;1.17;;;0.60;;
49460;SDS011;35355;49.198;-0.368;2022-07-24T12:05:28;1.33;;;0.63;;
49460;SDS011;35355;49.198;-0.368;2022-07-24T12:07:54;1.65;;;0.77;;
49460;SDS011;35355;49.198;-0.368;2022-07-24T12:10:22;5.72;;;1.27;;
49460;SDS011;35355;49.198;-0.368;2022-07-24T12:12:49;1.10;;;0.60;;
49460;SDS011;35355;49.198;-0.368;2022-07-24T12:15:16;2.17;;;1.20;;
49460;SDS011;35355;49.198;-0.368;2022-07-24T12:20:35;2.47;;;1.00;;
49460;SDS011;35355;49.198;-0.368;2022-07-24T12:23:02;9.90;;;1.45;;
49460;SDS011;35355;49.198;-0.368;2022-07-24T12:25:30;3.53;;;1.38;;
49460;SDS011;35355;49.198;-0.368;2022-07-24T12:28:10;1.92;;;1.08;;
49460;SDS011;35355;49.198;-0.368;2022-07-24T12:30:42;4.55;;;1.10;;
49460;SDS011;35355;49.198;-0.368;2022-07-24T12:38:43;4.55;;;1.55;;
49460;SDS011;35355;49.198;-0.368;2022-07-24T12:41:17;1.23;;;0.60;;
49460;SDS011;35355;49.198;-0.368;2022-07-24T12:46:15;1.42;;;0.98;;
49460;SDS011;35355;49.198;-0.368;2022-07-24T12:49:28;1.63;;;0.95;;
49460;SDS011;35355;49.198;-0.368;2022-07-24T12:51:45;2.13;;;0.77;;
49460;SDS011;35355;49.198;-0.368;2022-07-24T12:54:25;1.48;;;1.00;;
49460;SDS011;35355;49.198;-0.368;2022-07-24T12:56:53;3.53;;;1.15;;
49460;SDS011;35355;49.198;-0.368;2022-07-24T12:59:29;2.17;;;1.17;;
49460;SDS011;35355;49.198;-0.368;2022-07-24T13:01:58;4.70;;;0.93;;
49460;SDS011;35355;49.198;-0.368;2022-07-24T13:04:29;3.50;;;1.13;;
49460;SDS011;35355;49.198;-0.368;2022-07-24T13:06:56;1.77;;;0.90;;
49460;SDS011;35355;49.198;-0.368;2022-07-24T13:09:25;2.05;;;0.68;;
49460;SDS011;35355;49.198;-0.368;2022-07-24T13:11:53;2.88;;;0.90;;
49460;SDS011;35355;49.198;-0.368;2022-07-24T13:14:20;2.88;;;1.30;;
49460;SDS011;35355;49.198;-0.368;2022-07-24T13:16:49;2.15;;;1.23;;
49460;SDS011;35355;49.198;-0.368;2022-07-24T13:19:16;2.22;;;0.98;;
49460;SDS011;35355;49.198;-0.368;2022-07-24T13:21:43;2.63;;;1.30;;
49460;SDS011;35355;49.198;-0.368;2022-07-24T13:24:10;2.58;;;0.90;;
49460;SDS011;35355;49.198;-0.368;2022-07-24T13:26:39;1.75;;;1.20;;
49460;SDS011;35355;49.198;-0.368;2022-07-24T13:29:07;2.75;;;1.00;;
49460;SDS011;35355;49.198;-0.368;2022-07-24T13:31:34;3.78;;;1.10;;
49460;SDS011;35355;49.198;-0.368;2022-07-24T13:34:00;2.47;;;1.05;;
49460;SDS011;35355;49.198;-0.368;2022-07-24T13:36:26;1.98;;;0.98;;
49460;SDS011;35355;49.198;-0.368;2022-07-24T13:38:52;1.70;;;0.73;;
49460;SDS011;35355;49.198;-0.368;2022-07-24T13:41:18;2.42;;;1.08;;
49460;SDS011;35355;49.198;-0.368;2022-07-24T13:43:46;5.20;;;0.90;;
49460;SDS011;35355;49.198;-0.368;2022-07-24T13:46:13;2.65;;;1.02;;
49460;SDS011;35355;49.198;-0.368;2022-07-24T13:48:39;4.30;;;1.05;;
49460;SDS011;35355;49.198;-0.368;2022-07-24T14:11:08;2.97;;;1.30;;
49460;SDS011;35355;49.198;-0.368;2022-07-24T14:13:34;5.72;;;1.23;;
49460;SDS011;35355;49.198;-0.368;2022-07-24T14:16:00;2.55;;;1.10;;
49460;SDS011;35355;49.198;-0.368;2022-07-24T14:18:26;1.85;;;1.10;;
49460;SDS011;35355;49.198;-0.368;2022-07-24T14:20:52;3.20;;;1.20;;
49460;SDS011;35355;49.198;-0.368;2022-07-24T14:23:17;2.20;;;1.10;;
49460;SDS011;35355;49.198;-0.368;2022-07-24T14:25:44;2.80;;;1.15;;
49460;SDS011;35355;49.198;-0.368;2022-07-24T14:28:10;7.78;;;1.55;;
49460;SDS011;35355;49.198;-0.368;2022-07-24T14:30:37;4.22;;;1.40;;
49460;SDS011;35355;49.198;-0.368;2022-07-24T14:33:03;3.95;;;0.95;;
49460;SDS011;35355;49.198;-0.368;2022-07-24T14:35:29;2.05;;;0.93;;
49460;SDS011;35355;49.198;-0.368;2022-07-24T14:37:56;1.63;;;0.85;;
49460;SDS011;35355;49.198;-0.368;2022-07-24T14:40:22;3.80;;;2.08;;
49460;SDS011;35355;49.198;-0.368;2022-07-24T14:42:49;2.65;;;1.38;;
49460;SDS011;35355;49.198;-0.368;2022-07-24T14:45:15;6.80;;;1.90;;
49460;SDS011;35355;49.198;-0.368;2022-07-24T14:47:41;3.42;;;1.13;;
49460;SDS011;35355;49.198;-0.368;2022-07-24T14:50:07;2.67;;;1.20;;
49460;SDS011;35355;49.198;-0.368;2022-07-24T14:52:34;5.63;;;1.25;;
49460;SDS011;35355;49.198;-0.368;2022-07-24T14:55:01;5.35;;;1.00;;
49460;SDS011;35355;49.198;-0.368;2022-07-24T14:57:28;2.42;;;1.33;;
49460;SDS011;35355;49.198;-0.368;2022-07-24T14:59:54;3.80;;;1.05;;
49460;SDS011;35355;49.198;-0.368;2022-07-24T15:02:19;2.10;;;1.08;;
49460;SDS011;35355;49.198;-0.368;2022-07-24T15:04:45;1.67;;;0.95;;
49460;SDS011;35355;49.198;-0.368;2022-07-24T15:07:12;2.35;;;1.40;;
49460;SDS011;35355;49.198;-0.368;2022-07-24T15:09:38;1.92;;;1.10;;
49460;SDS011;35355;49.198;-0.368;2022-07-24T15:12:04;3.83;;;1.20;;
49460;SDS011;35355;49.198;-0.368;2022-07-24T15:14:30;2.60;;;1.13;;
49460;SDS011;35355;49.198;-0.368;2022-07-24T15:16:56;4.72;;;1.10;;
49460;SDS011;35355;49.198;-0.368;2022-07-24T15:19:21;4.30;;;1.17;;
49460;SDS011;35355;49.198;-0.368;2022-07-24T15:21:49;3.45;;;1.15;;
49460;SDS011;35355;49.198;-0.368;2022-07-24T15:24:15;2.95;;;1.17;;
49460;SDS011;35355;49.198;-0.368;2022-07-24T15:26:41;4.35;;;1.40;;
49460;SDS011;35355;49.198;-0.368;2022-07-24T15:29:07;1.67;;;1.02;;
49460;SDS011;35355;49.198;-0.368;2022-07-24T15:31:33;2.63;;;1.42;;
49460;SDS011;35355;49.198;-0.368;2022-07-24T15:33:59;3.15;;;0.93;;
49460;SDS011;35355;49.198;-0.368;2022-07-24T15:36:25;2.47;;;1.30;;
49460;SDS011;35355;49.198;-0.368;2022-07-24T15:38:50;1.88;;;0.98;;
49460;SDS011;35355;49.198;-0.368;2022-07-24T15:41:16;1.13;;;0.90;;
49460;SDS011;35355;49.198;-0.368;2022-07-24T15:43:42;3.97;;;1.55;;
49460;SDS011;35355;49.198;-0.368;2022-07-24T15:46:08;2.40;;;1.25;;
49460;SDS011;35355;49.198;-0.368;2022-07-24T15:48:34;1.58;;;0.98;;
49460;SDS011;35355;49.198;-0.368;2022-07-24T15:51:00;1.90;;;1.20;;
49460;SDS011;35355;49.198;-0.368;2022-07-24T15:53:25;2.03;;;1.55;;
49460;SDS011;35355;49.198;-0.368;2022-07-24T15:55:51;1.63;;;0.88;;
49460;SDS011;35355;49.198;-0.368;2022-07-24T15:58:17;3.38;;;1.40;;